<?xml version="1.0" encoding="UTF-8" standalone="no" ?>
<gpx xmlns="http://www.topografix.com/GPX/1/1" xmlns:xsi="http://www.w3.org/2001/XMLSchema-instance" xsi:schemaLocation="http://www.topografix.com/GPX/1/1 http://www.topografix.com/GPX/1/1/gpx.xsd" version="1.1" creator="VisuGPX - https://www.visugpx.com">
  <metadata>
    <name>Taurinya ,site minier de SALVER</name>
    <desc><![CDATA[TOPO sur notre site:
https://randonnees-pyrenees-orientales.e-monsite.com/pages/pyrenees-orientales/conflent-bas/taurinia-le-site-minier-de-salver.html]]></desc>
  </metadata>
  <trk>
    <name><![CDATA[3816432-Taurinya ,site minier de SALVER]]></name>
    <extensions>
      <line xmlns="http://www.topografix.com/GPX/gpx_style/0/2">
        <color>0000FF</color>
        <width>4</width>
      </line>
    </extensions>
    <trkseg>
      <trkpt lat="42.5802" lon="2.4257">
        <ele>549</ele>
        <time>2022-07-05T06:33:38Z</time>
      </trkpt>
      <trkpt lat="42.57916" lon="2.42732">
        <ele>562</ele>
        <time>2022-07-05T06:37:09Z</time>
      </trkpt>
      <trkpt lat="42.57911" lon="2.42726">
        <ele>562</ele>
        <time>2022-07-05T06:37:18Z</time>
      </trkpt>
      <trkpt lat="42.57922" lon="2.42698">
        <ele>561</ele>
        <time>2022-07-05T06:37:49Z</time>
      </trkpt>
      <trkpt lat="42.57931" lon="2.42716">
        <ele>561</ele>
        <time>2022-07-05T06:38:11Z</time>
      </trkpt>
      <trkpt lat="42.57904" lon="2.42783">
        <ele>565</ele>
        <time>2022-07-05T06:39:26Z</time>
      </trkpt>
      <trkpt lat="42.57893" lon="2.42808">
        <ele>566</ele>
        <time>2022-07-05T06:39:54Z</time>
      </trkpt>
      <trkpt lat="42.57871" lon="2.42843">
        <ele>566</ele>
        <time>2022-07-05T06:40:40Z</time>
      </trkpt>
      <trkpt lat="42.57852" lon="2.42852">
        <ele>566</ele>
        <time>2022-07-05T06:41:06Z</time>
      </trkpt>
      <trkpt lat="42.57821" lon="2.42849">
        <ele>569</ele>
        <time>2022-07-05T06:41:48Z</time>
      </trkpt>
      <trkpt lat="42.57765" lon="2.42838">
        <ele>575</ele>
        <time>2022-07-05T06:43:03Z</time>
      </trkpt>
      <trkpt lat="42.57733" lon="2.42838">
        <ele>578</ele>
        <time>2022-07-05T06:43:46Z</time>
      </trkpt>
      <trkpt lat="42.57706" lon="2.42842">
        <ele>581</ele>
        <time>2022-07-05T06:44:22Z</time>
      </trkpt>
      <trkpt lat="42.57676" lon="2.42825">
        <ele>584</ele>
        <time>2022-07-05T06:45:06Z</time>
      </trkpt>
      <trkpt lat="42.57656" lon="2.42824">
        <ele>587</ele>
        <time>2022-07-05T06:45:32Z</time>
      </trkpt>
      <trkpt lat="42.57637" lon="2.42829">
        <ele>589</ele>
        <time>2022-07-05T06:45:58Z</time>
      </trkpt>
      <trkpt lat="42.57604" lon="2.42844">
        <ele>591</ele>
        <time>2022-07-05T06:46:45Z</time>
      </trkpt>
      <trkpt lat="42.57585" lon="2.42851">
        <ele>592</ele>
        <time>2022-07-05T06:47:11Z</time>
      </trkpt>
      <trkpt lat="42.57568" lon="2.42865">
        <ele>593</ele>
        <time>2022-07-05T06:47:37Z</time>
      </trkpt>
      <trkpt lat="42.57545" lon="2.42876">
        <ele>596</ele>
        <time>2022-07-05T06:48:10Z</time>
      </trkpt>
      <trkpt lat="42.57507" lon="2.42874">
        <ele>601</ele>
        <time>2022-07-05T06:49:01Z</time>
      </trkpt>
      <trkpt lat="42.57437" lon="2.42885">
        <ele>611</ele>
        <time>2022-07-05T06:50:35Z</time>
      </trkpt>
      <trkpt lat="42.57393" lon="2.42908">
        <ele>616</ele>
        <time>2022-07-05T06:51:38Z</time>
      </trkpt>
      <trkpt lat="42.57361" lon="2.42931">
        <ele>618</ele>
        <time>2022-07-05T06:52:26Z</time>
      </trkpt>
      <trkpt lat="42.57305" lon="2.42984">
        <ele>623</ele>
        <time>2022-07-05T06:53:57Z</time>
      </trkpt>
      <trkpt lat="42.57274" lon="2.42995">
        <ele>625</ele>
        <time>2022-07-05T06:54:40Z</time>
      </trkpt>
      <trkpt lat="42.57249" lon="2.42999">
        <ele>626</ele>
        <time>2022-07-05T06:55:13Z</time>
      </trkpt>
      <trkpt lat="42.57215" lon="2.42996">
        <ele>631</ele>
        <time>2022-07-05T06:55:59Z</time>
      </trkpt>
      <trkpt lat="42.57161" lon="2.43011">
        <ele>638</ele>
        <time>2022-07-05T06:57:12Z</time>
      </trkpt>
      <trkpt lat="42.57142" lon="2.43002">
        <ele>642</ele>
        <time>2022-07-05T06:57:39Z</time>
      </trkpt>
      <trkpt lat="42.5711" lon="2.42969">
        <ele>646</ele>
        <time>2022-07-05T06:58:33Z</time>
      </trkpt>
      <trkpt lat="42.57082" lon="2.42958">
        <ele>649</ele>
        <time>2022-07-05T06:59:12Z</time>
      </trkpt>
      <trkpt lat="42.57065" lon="2.42937">
        <ele>653</ele>
        <time>2022-07-05T06:59:43Z</time>
      </trkpt>
      <trkpt lat="42.57048" lon="2.42899">
        <ele>657</ele>
        <time>2022-07-05T07:00:26Z</time>
      </trkpt>
      <trkpt lat="42.57013" lon="2.42844">
        <ele>662</ele>
        <time>2022-07-05T07:01:38Z</time>
      </trkpt>
      <trkpt lat="42.56991" lon="2.42802">
        <ele>666</ele>
        <time>2022-07-05T07:02:28Z</time>
      </trkpt>
      <trkpt lat="42.56972" lon="2.42775">
        <ele>670</ele>
        <time>2022-07-05T07:03:05Z</time>
      </trkpt>
      <trkpt lat="42.56954" lon="2.42747">
        <ele>673</ele>
        <time>2022-07-05T07:03:42Z</time>
      </trkpt>
      <trkpt lat="42.5693" lon="2.42715">
        <ele>680</ele>
        <time>2022-07-05T07:04:26Z</time>
      </trkpt>
      <trkpt lat="42.56919" lon="2.42691">
        <ele>683</ele>
        <time>2022-07-05T07:04:54Z</time>
      </trkpt>
      <trkpt lat="42.56912" lon="2.42676">
        <ele>686</ele>
        <time>2022-07-05T07:05:12Z</time>
      </trkpt>
      <trkpt lat="42.56898" lon="2.42653">
        <ele>692</ele>
        <time>2022-07-05T07:05:41Z</time>
      </trkpt>
      <trkpt lat="42.56888" lon="2.42626">
        <ele>696</ele>
        <time>2022-07-05T07:06:11Z</time>
      </trkpt>
      <trkpt lat="42.56887" lon="2.42583">
        <ele>700</ele>
        <time>2022-07-05T07:06:53Z</time>
      </trkpt>
      <trkpt lat="42.56893" lon="2.42552">
        <ele>706</ele>
        <time>2022-07-05T07:07:24Z</time>
      </trkpt>
      <trkpt lat="42.56909" lon="2.42525">
        <ele>713</ele>
        <time>2022-07-05T07:07:59Z</time>
      </trkpt>
      <trkpt lat="42.5693" lon="2.42515">
        <ele>718</ele>
        <time>2022-07-05T07:08:28Z</time>
      </trkpt>
      <trkpt lat="42.56943" lon="2.42576">
        <ele>709</ele>
        <time>2022-07-05T07:09:31Z</time>
      </trkpt>
      <trkpt lat="42.56961" lon="2.42606">
        <ele>704</ele>
        <time>2022-07-05T07:10:09Z</time>
      </trkpt>
      <trkpt lat="42.56981" lon="2.4261">
        <ele>706</ele>
        <time>2022-07-05T07:10:36Z</time>
      </trkpt>
      <trkpt lat="42.57014" lon="2.42596">
        <ele>712</ele>
        <time>2022-07-05T07:11:22Z</time>
      </trkpt>
      <trkpt lat="42.57029" lon="2.42572">
        <ele>718</ele>
        <time>2022-07-05T07:11:53Z</time>
      </trkpt>
      <trkpt lat="42.57048" lon="2.42548">
        <ele>722</ele>
        <time>2022-07-05T07:12:27Z</time>
      </trkpt>
      <trkpt lat="42.57074" lon="2.42534">
        <ele>724</ele>
        <time>2022-07-05T07:13:05Z</time>
      </trkpt>
      <trkpt lat="42.57077" lon="2.42561">
        <ele>719</ele>
        <time>2022-07-05T07:13:32Z</time>
      </trkpt>
      <trkpt lat="42.57079" lon="2.42595">
        <ele>712</ele>
        <time>2022-07-05T07:14:05Z</time>
      </trkpt>
      <trkpt lat="42.5709" lon="2.4263">
        <ele>705</ele>
        <time>2022-07-05T07:14:42Z</time>
      </trkpt>
      <trkpt lat="42.57108" lon="2.4264">
        <ele>704</ele>
        <time>2022-07-05T07:15:08Z</time>
      </trkpt>
      <trkpt lat="42.57118" lon="2.42611">
        <ele>712</ele>
        <time>2022-07-05T07:15:40Z</time>
      </trkpt>
      <trkpt lat="42.57129" lon="2.42583">
        <ele>721</ele>
        <time>2022-07-05T07:16:11Z</time>
      </trkpt>
      <trkpt lat="42.57137" lon="2.42556">
        <ele>727</ele>
        <time>2022-07-05T07:16:40Z</time>
      </trkpt>
      <trkpt lat="42.57146" lon="2.42539">
        <ele>732</ele>
        <time>2022-07-05T07:17:00Z</time>
      </trkpt>
      <trkpt lat="42.57153" lon="2.42507">
        <ele>739</ele>
        <time>2022-07-05T07:17:33Z</time>
      </trkpt>
      <trkpt lat="42.57147" lon="2.42476">
        <ele>745</ele>
        <time>2022-07-05T07:18:05Z</time>
      </trkpt>
      <trkpt lat="42.57163" lon="2.42459">
        <ele>751</ele>
        <time>2022-07-05T07:18:32Z</time>
      </trkpt>
      <trkpt lat="42.57142" lon="2.42458">
        <ele>749</ele>
        <time>2022-07-05T07:19:00Z</time>
      </trkpt>
      <trkpt lat="42.57126" lon="2.42449">
        <ele>750</ele>
        <time>2022-07-05T07:19:23Z</time>
      </trkpt>
      <trkpt lat="42.57104" lon="2.42423">
        <ele>757</ele>
        <time>2022-07-05T07:20:02Z</time>
      </trkpt>
      <trkpt lat="42.57106" lon="2.42394">
        <ele>765</ele>
        <time>2022-07-05T07:20:30Z</time>
      </trkpt>
      <trkpt lat="42.57097" lon="2.42365">
        <ele>773</ele>
        <time>2022-07-05T07:21:01Z</time>
      </trkpt>
      <trkpt lat="42.57085" lon="2.42353">
        <ele>776</ele>
        <time>2022-07-05T07:21:21Z</time>
      </trkpt>
      <trkpt lat="42.57079" lon="2.42328">
        <ele>783</ele>
        <time>2022-07-05T07:21:47Z</time>
      </trkpt>
      <trkpt lat="42.57099" lon="2.42318">
        <ele>784</ele>
        <time>2022-07-05T07:22:15Z</time>
      </trkpt>
      <trkpt lat="42.57124" lon="2.42345">
        <ele>777</ele>
        <time>2022-07-05T07:22:58Z</time>
      </trkpt>
      <trkpt lat="42.57143" lon="2.42349">
        <ele>775</ele>
        <time>2022-07-05T07:23:24Z</time>
      </trkpt>
      <trkpt lat="42.57143" lon="2.42315">
        <ele>782</ele>
        <time>2022-07-05T07:23:57Z</time>
      </trkpt>
      <trkpt lat="42.57146" lon="2.42289">
        <ele>787</ele>
        <time>2022-07-05T07:24:23Z</time>
      </trkpt>
      <trkpt lat="42.5714" lon="2.42252">
        <ele>793</ele>
        <time>2022-07-05T07:25:00Z</time>
      </trkpt>
      <trkpt lat="42.5716" lon="2.42251">
        <ele>793</ele>
        <time>2022-07-05T07:25:27Z</time>
      </trkpt>
      <trkpt lat="42.5718" lon="2.42237">
        <ele>795</ele>
        <time>2022-07-05T07:25:57Z</time>
      </trkpt>
      <trkpt lat="42.57194" lon="2.42203">
        <ele>801</ele>
        <time>2022-07-05T07:26:35Z</time>
      </trkpt>
      <trkpt lat="42.57206" lon="2.42171">
        <ele>807</ele>
        <time>2022-07-05T07:27:11Z</time>
      </trkpt>
      <trkpt lat="42.57229" lon="2.42148">
        <ele>814</ele>
        <time>2022-07-05T07:27:49Z</time>
      </trkpt>
      <trkpt lat="42.57245" lon="2.42124">
        <ele>821</ele>
        <time>2022-07-05T07:28:20Z</time>
      </trkpt>
      <trkpt lat="42.57264" lon="2.42115">
        <ele>820</ele>
        <time>2022-07-05T07:28:47Z</time>
      </trkpt>
      <trkpt lat="42.57277" lon="2.42089">
        <ele>823</ele>
        <time>2022-07-05T07:29:18Z</time>
      </trkpt>
      <trkpt lat="42.57273" lon="2.42059">
        <ele>828</ele>
        <time>2022-07-05T07:29:48Z</time>
      </trkpt>
      <trkpt lat="42.57272" lon="2.42025">
        <ele>832</ele>
        <time>2022-07-05T07:30:22Z</time>
      </trkpt>
      <trkpt lat="42.57273" lon="2.41995">
        <ele>835</ele>
        <time>2022-07-05T07:30:51Z</time>
      </trkpt>
      <trkpt lat="42.57257" lon="2.41977">
        <ele>841</ele>
        <time>2022-07-05T07:31:19Z</time>
      </trkpt>
      <trkpt lat="42.57258" lon="2.41944">
        <ele>844</ele>
        <time>2022-07-05T07:31:51Z</time>
      </trkpt>
      <trkpt lat="42.57262" lon="2.41913">
        <ele>847</ele>
        <time>2022-07-05T07:32:22Z</time>
      </trkpt>
      <trkpt lat="42.5728" lon="2.41878">
        <ele>847</ele>
        <time>2022-07-05T07:33:04Z</time>
      </trkpt>
      <trkpt lat="42.57297" lon="2.41857">
        <ele>845</ele>
        <time>2022-07-05T07:33:35Z</time>
      </trkpt>
      <trkpt lat="42.57304" lon="2.41815">
        <ele>846</ele>
        <time>2022-07-05T07:34:17Z</time>
      </trkpt>
      <trkpt lat="42.57318" lon="2.41803">
        <ele>844</ele>
        <time>2022-07-05T07:34:39Z</time>
      </trkpt>
      <trkpt lat="42.57345" lon="2.41748">
        <ele>843</ele>
        <time>2022-07-05T07:35:44Z</time>
      </trkpt>
      <trkpt lat="42.57363" lon="2.41725">
        <ele>838</ele>
        <time>2022-07-05T07:36:17Z</time>
      </trkpt>
      <trkpt lat="42.57437" lon="2.41663">
        <ele>829</ele>
        <time>2022-07-05T07:38:13Z</time>
      </trkpt>
      <trkpt lat="42.57464" lon="2.4165">
        <ele>823</ele>
        <time>2022-07-05T07:38:51Z</time>
      </trkpt>
      <trkpt lat="42.5749" lon="2.41625">
        <ele>821</ele>
        <time>2022-07-05T07:39:34Z</time>
      </trkpt>
      <trkpt lat="42.57503" lon="2.41607">
        <ele>822</ele>
        <time>2022-07-05T07:39:59Z</time>
      </trkpt>
      <trkpt lat="42.57518" lon="2.41571">
        <ele>821</ele>
        <time>2022-07-05T07:40:39Z</time>
      </trkpt>
      <trkpt lat="42.57527" lon="2.41538">
        <ele>816</ele>
        <time>2022-07-05T07:41:14Z</time>
      </trkpt>
      <trkpt lat="42.57535" lon="2.41509">
        <ele>812</ele>
        <time>2022-07-05T07:41:44Z</time>
      </trkpt>
      <trkpt lat="42.57551" lon="2.41483">
        <ele>806</ele>
        <time>2022-07-05T07:42:18Z</time>
      </trkpt>
      <trkpt lat="42.57564" lon="2.41462">
        <ele>802</ele>
        <time>2022-07-05T07:42:45Z</time>
      </trkpt>
      <trkpt lat="42.57575" lon="2.4144">
        <ele>800</ele>
        <time>2022-07-05T07:43:11Z</time>
      </trkpt>
      <trkpt lat="42.57585" lon="2.41413">
        <ele>798</ele>
        <time>2022-07-05T07:43:40Z</time>
      </trkpt>
      <trkpt lat="42.57603" lon="2.4141">
        <ele>796</ele>
        <time>2022-07-05T07:44:05Z</time>
      </trkpt>
      <trkpt lat="42.57626" lon="2.41418">
        <ele>793</ele>
        <time>2022-07-05T07:44:36Z</time>
      </trkpt>
      <trkpt lat="42.57652" lon="2.41418">
        <ele>791</ele>
        <time>2022-07-05T07:45:11Z</time>
      </trkpt>
      <trkpt lat="42.57677" lon="2.41409">
        <ele>787</ele>
        <time>2022-07-05T07:45:46Z</time>
      </trkpt>
      <trkpt lat="42.57697" lon="2.41405">
        <ele>783</ele>
        <time>2022-07-05T07:46:13Z</time>
      </trkpt>
      <trkpt lat="42.57731" lon="2.4142">
        <ele>773</ele>
        <time>2022-07-05T07:47:00Z</time>
      </trkpt>
      <trkpt lat="42.57751" lon="2.41425">
        <ele>767</ele>
        <time>2022-07-05T07:47:27Z</time>
      </trkpt>
      <trkpt lat="42.57814" lon="2.41353">
        <ele>760</ele>
        <time>2022-07-05T07:49:17Z</time>
      </trkpt>
      <trkpt lat="42.5786" lon="2.41327">
        <ele>752</ele>
        <time>2022-07-05T07:50:24Z</time>
      </trkpt>
      <trkpt lat="42.57877" lon="2.41308">
        <ele>751</ele>
        <time>2022-07-05T07:50:53Z</time>
      </trkpt>
      <trkpt lat="42.57892" lon="2.41283">
        <ele>750</ele>
        <time>2022-07-05T07:51:25Z</time>
      </trkpt>
      <trkpt lat="42.57909" lon="2.41266">
        <ele>748</ele>
        <time>2022-07-05T07:51:53Z</time>
      </trkpt>
      <trkpt lat="42.57933" lon="2.4125">
        <ele>745</ele>
        <time>2022-07-05T07:52:29Z</time>
      </trkpt>
      <trkpt lat="42.57951" lon="2.41243">
        <ele>743</ele>
        <time>2022-07-05T07:52:54Z</time>
      </trkpt>
      <trkpt lat="42.57994" lon="2.41233">
        <ele>736</ele>
        <time>2022-07-05T07:53:52Z</time>
      </trkpt>
      <trkpt lat="42.58013" lon="2.41221">
        <ele>735</ele>
        <time>2022-07-05T07:54:20Z</time>
      </trkpt>
      <trkpt lat="42.58048" lon="2.41205">
        <ele>732</ele>
        <time>2022-07-05T07:55:09Z</time>
      </trkpt>
      <trkpt lat="42.5811" lon="2.41199">
        <ele>725</ele>
        <time>2022-07-05T07:56:32Z</time>
      </trkpt>
      <trkpt lat="42.58141" lon="2.41224">
        <ele>718</ele>
        <time>2022-07-05T07:57:20Z</time>
      </trkpt>
      <trkpt lat="42.58192" lon="2.41228">
        <ele>714</ele>
        <time>2022-07-05T07:58:28Z</time>
      </trkpt>
      <trkpt lat="42.58243" lon="2.41245">
        <ele>710</ele>
        <time>2022-07-05T07:59:38Z</time>
      </trkpt>
      <trkpt lat="42.58267" lon="2.41267">
        <ele>705</ele>
        <time>2022-07-05T08:00:17Z</time>
      </trkpt>
      <trkpt lat="42.58287" lon="2.41274">
        <ele>699</ele>
        <time>2022-07-05T08:00:45Z</time>
      </trkpt>
      <trkpt lat="42.58315" lon="2.41273">
        <ele>690</ele>
        <time>2022-07-05T08:01:22Z</time>
      </trkpt>
      <trkpt lat="42.58339" lon="2.4127">
        <ele>683</ele>
        <time>2022-07-05T08:01:54Z</time>
      </trkpt>
      <trkpt lat="42.58359" lon="2.4129">
        <ele>680</ele>
        <time>2022-07-05T08:02:27Z</time>
      </trkpt>
      <trkpt lat="42.58408" lon="2.41308">
        <ele>671</ele>
        <time>2022-07-05T08:03:35Z</time>
      </trkpt>
      <trkpt lat="42.58459" lon="2.41313">
        <ele>663</ele>
        <time>2022-07-05T08:04:43Z</time>
      </trkpt>
      <trkpt lat="42.58483" lon="2.41301">
        <ele>657</ele>
        <time>2022-07-05T08:05:17Z</time>
      </trkpt>
      <trkpt lat="42.585" lon="2.41275">
        <ele>652</ele>
        <time>2022-07-05T08:05:52Z</time>
      </trkpt>
      <trkpt lat="42.58525" lon="2.41264">
        <ele>646</ele>
        <time>2022-07-05T08:06:27Z</time>
      </trkpt>
      <trkpt lat="42.58551" lon="2.41259">
        <ele>641</ele>
        <time>2022-07-05T08:07:02Z</time>
      </trkpt>
      <trkpt lat="42.58581" lon="2.41266">
        <ele>635</ele>
        <time>2022-07-05T08:07:42Z</time>
      </trkpt>
      <trkpt lat="42.5861" lon="2.41269">
        <ele>631</ele>
        <time>2022-07-05T08:08:21Z</time>
      </trkpt>
      <trkpt lat="42.58664" lon="2.41264">
        <ele>625</ele>
        <time>2022-07-05T08:09:33Z</time>
      </trkpt>
      <trkpt lat="42.58683" lon="2.4126">
        <ele>620</ele>
        <time>2022-07-05T08:09:59Z</time>
      </trkpt>
      <trkpt lat="42.58704" lon="2.41261">
        <ele>615</ele>
        <time>2022-07-05T08:10:27Z</time>
      </trkpt>
      <trkpt lat="42.58747" lon="2.41244">
        <ele>603</ele>
        <time>2022-07-05T08:11:27Z</time>
      </trkpt>
      <trkpt lat="42.5877" lon="2.41242">
        <ele>596</ele>
        <time>2022-07-05T08:11:58Z</time>
      </trkpt>
      <trkpt lat="42.58788" lon="2.41227">
        <ele>588</ele>
        <time>2022-07-05T08:12:26Z</time>
      </trkpt>
      <trkpt lat="42.58811" lon="2.41216">
        <ele>580</ele>
        <time>2022-07-05T08:12:58Z</time>
      </trkpt>
      <trkpt lat="42.58835" lon="2.41213">
        <ele>574</ele>
        <time>2022-07-05T08:13:30Z</time>
      </trkpt>
      <trkpt lat="42.58857" lon="2.41218">
        <ele>570</ele>
        <time>2022-07-05T08:14:00Z</time>
      </trkpt>
      <trkpt lat="42.58888" lon="2.41229">
        <ele>565</ele>
        <time>2022-07-05T08:14:43Z</time>
      </trkpt>
      <trkpt lat="42.58908" lon="2.41219">
        <ele>561</ele>
        <time>2022-07-05T08:15:11Z</time>
      </trkpt>
      <trkpt lat="42.5893" lon="2.41217">
        <ele>558</ele>
        <time>2022-07-05T08:15:41Z</time>
      </trkpt>
      <trkpt lat="42.58949" lon="2.41207">
        <ele>557</ele>
        <time>2022-07-05T08:16:08Z</time>
      </trkpt>
      <trkpt lat="42.58991" lon="2.41171">
        <ele>556</ele>
        <time>2022-07-05T08:17:14Z</time>
      </trkpt>
      <trkpt lat="42.59014" lon="2.41156">
        <ele>556</ele>
        <time>2022-07-05T08:17:48Z</time>
      </trkpt>
      <trkpt lat="42.59034" lon="2.41156">
        <ele>557</ele>
        <time>2022-07-05T08:18:15Z</time>
      </trkpt>
      <trkpt lat="42.59058" lon="2.41165">
        <ele>560</ele>
        <time>2022-07-05T08:18:48Z</time>
      </trkpt>
      <trkpt lat="42.59077" lon="2.41177">
        <ele>559</ele>
        <time>2022-07-05T08:19:16Z</time>
      </trkpt>
      <trkpt lat="42.59105" lon="2.41175">
        <ele>559</ele>
        <time>2022-07-05T08:19:54Z</time>
      </trkpt>
      <trkpt lat="42.59126" lon="2.41171">
        <ele>559</ele>
        <time>2022-07-05T08:20:22Z</time>
      </trkpt>
      <trkpt lat="42.59152" lon="2.41176">
        <ele>556</ele>
        <time>2022-07-05T08:20:57Z</time>
      </trkpt>
      <trkpt lat="42.59197" lon="2.41195">
        <ele>551</ele>
        <time>2022-07-05T08:22:00Z</time>
      </trkpt>
      <trkpt lat="42.59197" lon="2.41196">
        <ele>551</ele>
        <time>2022-07-05T08:22:01Z</time>
      </trkpt>
      <trkpt lat="42.59188" lon="2.41223">
        <ele>548</ele>
        <time>2022-07-05T08:22:30Z</time>
      </trkpt>
      <trkpt lat="42.59133" lon="2.4122">
        <ele>550</ele>
        <time>2022-07-05T08:23:43Z</time>
      </trkpt>
      <trkpt lat="42.59111" lon="2.4123">
        <ele>548</ele>
        <time>2022-07-05T08:24:14Z</time>
      </trkpt>
      <trkpt lat="42.5911" lon="2.41235">
        <ele>547</ele>
        <time>2022-07-05T08:24:19Z</time>
      </trkpt>
      <trkpt lat="42.59092" lon="2.41224">
        <ele>550</ele>
        <time>2022-07-05T08:24:46Z</time>
      </trkpt>
      <trkpt lat="42.59061" lon="2.41218">
        <ele>551</ele>
        <time>2022-07-05T08:25:28Z</time>
      </trkpt>
      <trkpt lat="42.59041" lon="2.41218">
        <ele>551</ele>
        <time>2022-07-05T08:25:54Z</time>
      </trkpt>
      <trkpt lat="42.5902" lon="2.41215">
        <ele>552</ele>
        <time>2022-07-05T08:26:22Z</time>
      </trkpt>
      <trkpt lat="42.58994" lon="2.4126">
        <ele>548</ele>
        <time>2022-07-05T08:27:19Z</time>
      </trkpt>
      <trkpt lat="42.58972" lon="2.41289">
        <ele>546</ele>
        <time>2022-07-05T08:28:00Z</time>
      </trkpt>
      <trkpt lat="42.58932" lon="2.41336">
        <ele>544</ele>
        <time>2022-07-05T08:29:10Z</time>
      </trkpt>
      <trkpt lat="42.58942" lon="2.41367">
        <ele>539</ele>
        <time>2022-07-05T08:29:43Z</time>
      </trkpt>
      <trkpt lat="42.58965" lon="2.41367">
        <ele>536</ele>
        <time>2022-07-05T08:30:14Z</time>
      </trkpt>
      <trkpt lat="42.58998" lon="2.41383">
        <ele>528</ele>
        <time>2022-07-05T08:31:01Z</time>
      </trkpt>
      <trkpt lat="42.59024" lon="2.41403">
        <ele>523</ele>
        <time>2022-07-05T08:31:41Z</time>
      </trkpt>
      <trkpt lat="42.59049" lon="2.41416">
        <ele>519</ele>
        <time>2022-07-05T08:32:16Z</time>
      </trkpt>
      <trkpt lat="42.59047" lon="2.41444">
        <ele>514</ele>
        <time>2022-07-05T08:32:44Z</time>
      </trkpt>
      <trkpt lat="42.59046" lon="2.41461">
        <ele>512</ele>
        <time>2022-07-05T08:33:01Z</time>
      </trkpt>
      <trkpt lat="42.59058" lon="2.41486">
        <ele>506</ele>
        <time>2022-07-05T08:33:30Z</time>
      </trkpt>
      <trkpt lat="42.59088" lon="2.41512">
        <ele>498</ele>
        <time>2022-07-05T08:34:18Z</time>
      </trkpt>
      <trkpt lat="42.5911" lon="2.41518">
        <ele>496</ele>
        <time>2022-07-05T08:34:48Z</time>
      </trkpt>
      <trkpt lat="42.59152" lon="2.41534">
        <ele>491</ele>
        <time>2022-07-05T08:35:46Z</time>
      </trkpt>
      <trkpt lat="42.59174" lon="2.4154">
        <ele>488</ele>
        <time>2022-07-05T08:36:16Z</time>
      </trkpt>
      <trkpt lat="42.59202" lon="2.41559">
        <ele>481</ele>
        <time>2022-07-05T08:36:58Z</time>
      </trkpt>
      <trkpt lat="42.59278" lon="2.41571">
        <ele>469</ele>
        <time>2022-07-05T08:38:40Z</time>
      </trkpt>
      <trkpt lat="42.59287" lon="2.41555">
        <ele>471</ele>
        <time>2022-07-05T08:38:59Z</time>
      </trkpt>
      <trkpt lat="42.59302" lon="2.41552">
        <ele>470</ele>
        <time>2022-07-05T08:39:20Z</time>
      </trkpt>
      <trkpt lat="42.59318" lon="2.41587">
        <ele>461</ele>
        <time>2022-07-05T08:40:00Z</time>
      </trkpt>
      <trkpt lat="42.59348" lon="2.41567">
        <ele>460</ele>
        <time>2022-07-05T08:40:45Z</time>
      </trkpt>
      <trkpt lat="42.59378" lon="2.41543">
        <ele>460</ele>
        <time>2022-07-05T08:41:31Z</time>
      </trkpt>
      <trkpt lat="42.59399" lon="2.41556">
        <ele>453</ele>
        <time>2022-07-05T08:42:02Z</time>
      </trkpt>
      <trkpt lat="42.59424" lon="2.41549">
        <ele>450</ele>
        <time>2022-07-05T08:42:36Z</time>
      </trkpt>
      <trkpt lat="42.59412" lon="2.41584">
        <ele>444</ele>
        <time>2022-07-05T08:43:14Z</time>
      </trkpt>
      <trkpt lat="42.59399" lon="2.41618">
        <ele>446</ele>
        <time>2022-07-05T08:43:52Z</time>
      </trkpt>
      <trkpt lat="42.59393" lon="2.41643">
        <ele>447</ele>
        <time>2022-07-05T08:44:17Z</time>
      </trkpt>
      <trkpt lat="42.59409" lon="2.41656">
        <ele>445</ele>
        <time>2022-07-05T08:44:42Z</time>
      </trkpt>
      <trkpt lat="42.59442" lon="2.41651">
        <ele>445</ele>
        <time>2022-07-05T08:45:27Z</time>
      </trkpt>
      <trkpt lat="42.59481" lon="2.41623">
        <ele>445</ele>
        <time>2022-07-05T08:46:25Z</time>
      </trkpt>
      <trkpt lat="42.59447" lon="2.41819">
        <ele>453</ele>
        <time>2022-07-05T08:49:43Z</time>
      </trkpt>
      <trkpt lat="42.59452" lon="2.41871">
        <ele>457</ele>
        <time>2022-07-05T08:50:35Z</time>
      </trkpt>
      <trkpt lat="42.59454" lon="2.41911">
        <ele>461</ele>
        <time>2022-07-05T08:51:14Z</time>
      </trkpt>
      <trkpt lat="42.59442" lon="2.41924">
        <ele>463</ele>
        <time>2022-07-05T08:51:35Z</time>
      </trkpt>
      <trkpt lat="42.59422" lon="2.4193">
        <ele>464</ele>
        <time>2022-07-05T08:52:02Z</time>
      </trkpt>
      <trkpt lat="42.59402" lon="2.41947">
        <ele>468</ele>
        <time>2022-07-05T08:52:34Z</time>
      </trkpt>
      <trkpt lat="42.59352" lon="2.41972">
        <ele>472</ele>
        <time>2022-07-05T08:53:45Z</time>
      </trkpt>
      <trkpt lat="42.59235" lon="2.42015">
        <ele>476</ele>
        <time>2022-07-05T08:56:26Z</time>
      </trkpt>
      <trkpt lat="42.59221" lon="2.42036">
        <ele>479</ele>
        <time>2022-07-05T08:56:54Z</time>
      </trkpt>
      <trkpt lat="42.5924" lon="2.42029">
        <ele>478</ele>
        <time>2022-07-05T08:57:20Z</time>
      </trkpt>
      <trkpt lat="42.59259" lon="2.42029">
        <ele>479</ele>
        <time>2022-07-05T08:57:46Z</time>
      </trkpt>
      <trkpt lat="42.59278" lon="2.42023">
        <ele>479</ele>
        <time>2022-07-05T08:58:12Z</time>
      </trkpt>
      <trkpt lat="42.59345" lon="2.4201">
        <ele>480</ele>
        <time>2022-07-05T08:59:42Z</time>
      </trkpt>
      <trkpt lat="42.59369" lon="2.42008">
        <ele>480</ele>
        <time>2022-07-05T09:00:14Z</time>
      </trkpt>
      <trkpt lat="42.59413" lon="2.42016">
        <ele>484</ele>
        <time>2022-07-05T09:01:13Z</time>
      </trkpt>
      <trkpt lat="42.59431" lon="2.42027">
        <ele>490</ele>
        <time>2022-07-05T09:01:40Z</time>
      </trkpt>
      <trkpt lat="42.59455" lon="2.42008">
        <ele>487</ele>
        <time>2022-07-05T09:02:17Z</time>
      </trkpt>
      <trkpt lat="42.59472" lon="2.41986">
        <ele>482</ele>
        <time>2022-07-05T09:02:48Z</time>
      </trkpt>
      <trkpt lat="42.59465" lon="2.41985">
        <ele>481</ele>
        <time>2022-07-05T09:02:58Z</time>
      </trkpt>
      <trkpt lat="42.59467" lon="2.41984">
        <ele>481</ele>
        <time>2022-07-05T09:03:00Z</time>
      </trkpt>
      <trkpt lat="42.59466" lon="2.42007">
        <ele>488</ele>
        <time>2022-07-05T09:03:23Z</time>
      </trkpt>
      <trkpt lat="42.59486" lon="2.42009">
        <ele>491</ele>
        <time>2022-07-05T09:03:50Z</time>
      </trkpt>
      <trkpt lat="42.59549" lon="2.42009">
        <ele>494</ele>
        <time>2022-07-05T09:05:14Z</time>
      </trkpt>
      <trkpt lat="42.59568" lon="2.42006">
        <ele>494</ele>
        <time>2022-07-05T09:05:39Z</time>
      </trkpt>
      <trkpt lat="42.59591" lon="2.42013">
        <ele>496</ele>
        <time>2022-07-05T09:06:11Z</time>
      </trkpt>
      <trkpt lat="42.59618" lon="2.42038">
        <ele>505</ele>
        <time>2022-07-05T09:06:55Z</time>
      </trkpt>
      <trkpt lat="42.59636" lon="2.42044">
        <ele>506</ele>
        <time>2022-07-05T09:07:19Z</time>
      </trkpt>
      <trkpt lat="42.59665" lon="2.42028">
        <ele>501</ele>
        <time>2022-07-05T09:08:01Z</time>
      </trkpt>
      <trkpt lat="42.59691" lon="2.42035">
        <ele>503</ele>
        <time>2022-07-05T09:08:36Z</time>
      </trkpt>
      <trkpt lat="42.5971" lon="2.42052">
        <ele>508</ele>
        <time>2022-07-05T09:09:07Z</time>
      </trkpt>
      <trkpt lat="42.59735" lon="2.4208">
        <ele>517</ele>
        <time>2022-07-05T09:09:50Z</time>
      </trkpt>
      <trkpt lat="42.59762" lon="2.42084">
        <ele>518</ele>
        <time>2022-07-05T09:10:26Z</time>
      </trkpt>
      <trkpt lat="42.59786" lon="2.4207">
        <ele>514</ele>
        <time>2022-07-05T09:11:01Z</time>
      </trkpt>
      <trkpt lat="42.59807" lon="2.4207">
        <ele>515</ele>
        <time>2022-07-05T09:11:29Z</time>
      </trkpt>
      <trkpt lat="42.59841" lon="2.42088">
        <ele>521</ele>
        <time>2022-07-05T09:12:18Z</time>
      </trkpt>
      <trkpt lat="42.59869" lon="2.42118">
        <ele>527</ele>
        <time>2022-07-05T09:13:05Z</time>
      </trkpt>
      <trkpt lat="42.59896" lon="2.42136">
        <ele>530</ele>
        <time>2022-07-05T09:13:46Z</time>
      </trkpt>
      <trkpt lat="42.59919" lon="2.42141">
        <ele>530</ele>
        <time>2022-07-05T09:14:17Z</time>
      </trkpt>
      <trkpt lat="42.59946" lon="2.42156">
        <ele>535</ele>
        <time>2022-07-05T09:14:56Z</time>
      </trkpt>
      <trkpt lat="42.59977" lon="2.42161">
        <ele>537</ele>
        <time>2022-07-05T09:15:37Z</time>
      </trkpt>
      <trkpt lat="42.60005" lon="2.42162">
        <ele>537</ele>
        <time>2022-07-05T09:16:15Z</time>
      </trkpt>
      <trkpt lat="42.60025" lon="2.42158">
        <ele>535</ele>
        <time>2022-07-05T09:16:42Z</time>
      </trkpt>
      <trkpt lat="42.60046" lon="2.42162">
        <ele>534</ele>
        <time>2022-07-05T09:17:10Z</time>
      </trkpt>
      <trkpt lat="42.60006" lon="2.42208">
        <ele>543</ele>
        <time>2022-07-05T09:18:20Z</time>
      </trkpt>
      <trkpt lat="42.59992" lon="2.42238">
        <ele>549</ele>
        <time>2022-07-05T09:18:55Z</time>
      </trkpt>
      <trkpt lat="42.59976" lon="2.42254">
        <ele>553</ele>
        <time>2022-07-05T09:19:21Z</time>
      </trkpt>
      <trkpt lat="42.59955" lon="2.4227">
        <ele>556</ele>
        <time>2022-07-05T09:19:53Z</time>
      </trkpt>
      <trkpt lat="42.59928" lon="2.42267">
        <ele>560</ele>
        <time>2022-07-05T09:20:29Z</time>
      </trkpt>
      <trkpt lat="42.59903" lon="2.42276">
        <ele>564</ele>
        <time>2022-07-05T09:21:04Z</time>
      </trkpt>
      <trkpt lat="42.59884" lon="2.42286">
        <ele>567</ele>
        <time>2022-07-05T09:21:31Z</time>
      </trkpt>
      <trkpt lat="42.59858" lon="2.4229">
        <ele>571</ele>
        <time>2022-07-05T09:22:06Z</time>
      </trkpt>
      <trkpt lat="42.59833" lon="2.423">
        <ele>577</ele>
        <time>2022-07-05T09:22:41Z</time>
      </trkpt>
      <trkpt lat="42.59813" lon="2.42311">
        <ele>580</ele>
        <time>2022-07-05T09:23:10Z</time>
      </trkpt>
      <trkpt lat="42.59779" lon="2.42344">
        <ele>587</ele>
        <time>2022-07-05T09:24:05Z</time>
      </trkpt>
      <trkpt lat="42.59743" lon="2.42347">
        <ele>592</ele>
        <time>2022-07-05T09:24:54Z</time>
      </trkpt>
      <trkpt lat="42.59714" lon="2.42354">
        <ele>594</ele>
        <time>2022-07-05T09:25:33Z</time>
      </trkpt>
      <trkpt lat="42.59682" lon="2.42368">
        <ele>598</ele>
        <time>2022-07-05T09:26:18Z</time>
      </trkpt>
      <trkpt lat="42.59655" lon="2.42378">
        <ele>602</ele>
        <time>2022-07-05T09:26:55Z</time>
      </trkpt>
      <trkpt lat="42.59634" lon="2.42387">
        <ele>605</ele>
        <time>2022-07-05T09:27:24Z</time>
      </trkpt>
      <trkpt lat="42.59581" lon="2.42384">
        <ele>611</ele>
        <time>2022-07-05T09:28:35Z</time>
      </trkpt>
      <trkpt lat="42.59555" lon="2.42374">
        <ele>610</ele>
        <time>2022-07-05T09:29:11Z</time>
      </trkpt>
      <trkpt lat="42.59488" lon="2.42405">
        <ele>618</ele>
        <time>2022-07-05T09:30:46Z</time>
      </trkpt>
      <trkpt lat="42.59458" lon="2.42424">
        <ele>620</ele>
        <time>2022-07-05T09:31:30Z</time>
      </trkpt>
      <trkpt lat="42.5943" lon="2.42453">
        <ele>623</ele>
        <time>2022-07-05T09:32:17Z</time>
      </trkpt>
      <trkpt lat="42.59361" lon="2.42541">
        <ele>636</ele>
        <time>2022-07-05T09:34:23Z</time>
      </trkpt>
      <trkpt lat="42.59348" lon="2.42567">
        <ele>643</ele>
        <time>2022-07-05T09:34:54Z</time>
      </trkpt>
      <trkpt lat="42.59305" lon="2.42599">
        <ele>648</ele>
        <time>2022-07-05T09:36:00Z</time>
      </trkpt>
      <trkpt lat="42.5928" lon="2.42624">
        <ele>651</ele>
        <time>2022-07-05T09:36:41Z</time>
      </trkpt>
      <trkpt lat="42.59258" lon="2.42652">
        <ele>656</ele>
        <time>2022-07-05T09:37:21Z</time>
      </trkpt>
      <trkpt lat="42.59217" lon="2.42695">
        <ele>664</ele>
        <time>2022-07-05T09:38:30Z</time>
      </trkpt>
      <trkpt lat="42.59198" lon="2.42712">
        <ele>668</ele>
        <time>2022-07-05T09:39:01Z</time>
      </trkpt>
      <trkpt lat="42.59174" lon="2.42738">
        <ele>675</ele>
        <time>2022-07-05T09:39:42Z</time>
      </trkpt>
      <trkpt lat="42.59164" lon="2.42763">
        <ele>679</ele>
        <time>2022-07-05T09:40:10Z</time>
      </trkpt>
      <trkpt lat="42.5915" lon="2.42805">
        <ele>684</ele>
        <time>2022-07-05T09:40:55Z</time>
      </trkpt>
      <trkpt lat="42.59138" lon="2.42837">
        <ele>688</ele>
        <time>2022-07-05T09:41:30Z</time>
      </trkpt>
      <trkpt lat="42.59117" lon="2.42907">
        <ele>700</ele>
        <time>2022-07-05T09:42:44Z</time>
      </trkpt>
      <trkpt lat="42.59107" lon="2.42935">
        <ele>703</ele>
        <time>2022-07-05T09:43:15Z</time>
      </trkpt>
      <trkpt lat="42.59088" lon="2.42969">
        <ele>707</ele>
        <time>2022-07-05T09:43:57Z</time>
      </trkpt>
      <trkpt lat="42.59055" lon="2.42993">
        <ele>710</ele>
        <time>2022-07-05T09:44:47Z</time>
      </trkpt>
      <trkpt lat="42.59037" lon="2.43003">
        <ele>711</ele>
        <time>2022-07-05T09:45:13Z</time>
      </trkpt>
      <trkpt lat="42.58969" lon="2.43031">
        <ele>717</ele>
        <time>2022-07-05T09:46:48Z</time>
      </trkpt>
      <trkpt lat="42.5894" lon="2.43047">
        <ele>725</ele>
        <time>2022-07-05T09:47:29Z</time>
      </trkpt>
      <trkpt lat="42.58915" lon="2.4305">
        <ele>730</ele>
        <time>2022-07-05T09:48:03Z</time>
      </trkpt>
      <trkpt lat="42.58889" lon="2.4307">
        <ele>733</ele>
        <time>2022-07-05T09:48:43Z</time>
      </trkpt>
      <trkpt lat="42.5887" lon="2.43089">
        <ele>736</ele>
        <time>2022-07-05T09:49:14Z</time>
      </trkpt>
      <trkpt lat="42.5885" lon="2.43121">
        <ele>740</ele>
        <time>2022-07-05T09:49:56Z</time>
      </trkpt>
      <trkpt lat="42.58829" lon="2.43158">
        <ele>747</ele>
        <time>2022-07-05T09:50:41Z</time>
      </trkpt>
      <trkpt lat="42.58804" lon="2.43186">
        <ele>742</ele>
        <time>2022-07-05T09:51:25Z</time>
      </trkpt>
      <trkpt lat="42.58788" lon="2.43201">
        <ele>740</ele>
        <time>2022-07-05T09:51:51Z</time>
      </trkpt>
      <trkpt lat="42.58767" lon="2.4323">
        <ele>742</ele>
        <time>2022-07-05T09:52:31Z</time>
      </trkpt>
      <trkpt lat="42.58755" lon="2.43253">
        <ele>745</ele>
        <time>2022-07-05T09:52:58Z</time>
      </trkpt>
      <trkpt lat="42.5873" lon="2.43285">
        <ele>741</ele>
        <time>2022-07-05T09:53:44Z</time>
      </trkpt>
      <trkpt lat="42.58729" lon="2.43298">
        <ele>741</ele>
        <time>2022-07-05T09:53:57Z</time>
      </trkpt>
      <trkpt lat="42.58723" lon="2.43289">
        <ele>740</ele>
        <time>2022-07-05T09:54:09Z</time>
      </trkpt>
      <trkpt lat="42.58724" lon="2.43291">
        <ele>740</ele>
        <time>2022-07-05T09:54:11Z</time>
      </trkpt>
      <trkpt lat="42.5865" lon="2.43323">
        <ele>733</ele>
        <time>2022-07-05T09:55:55Z</time>
      </trkpt>
      <trkpt lat="42.58618" lon="2.43343">
        <ele>727</ele>
        <time>2022-07-05T09:56:42Z</time>
      </trkpt>
      <trkpt lat="42.58544" lon="2.434">
        <ele>716</ele>
        <time>2022-07-05T09:58:35Z</time>
      </trkpt>
      <trkpt lat="42.58521" lon="2.43412">
        <ele>716</ele>
        <time>2022-07-05T09:59:08Z</time>
      </trkpt>
      <trkpt lat="42.585" lon="2.4342">
        <ele>716</ele>
        <time>2022-07-05T09:59:37Z</time>
      </trkpt>
      <trkpt lat="42.58469" lon="2.43428">
        <ele>716</ele>
        <time>2022-07-05T10:00:20Z</time>
      </trkpt>
      <trkpt lat="42.58439" lon="2.43431">
        <ele>717</ele>
        <time>2022-07-05T10:01:00Z</time>
      </trkpt>
      <trkpt lat="42.58412" lon="2.43437">
        <ele>717</ele>
        <time>2022-07-05T10:01:36Z</time>
      </trkpt>
      <trkpt lat="42.58392" lon="2.43448">
        <ele>714</ele>
        <time>2022-07-05T10:02:05Z</time>
      </trkpt>
      <trkpt lat="42.58376" lon="2.43474">
        <ele>711</ele>
        <time>2022-07-05T10:02:38Z</time>
      </trkpt>
      <trkpt lat="42.58353" lon="2.43467">
        <ele>710</ele>
        <time>2022-07-05T10:03:10Z</time>
      </trkpt>
      <trkpt lat="42.58332" lon="2.43467">
        <ele>709</ele>
        <time>2022-07-05T10:03:38Z</time>
      </trkpt>
      <trkpt lat="42.58312" lon="2.4347">
        <ele>705</ele>
        <time>2022-07-05T10:04:05Z</time>
      </trkpt>
      <trkpt lat="42.5829" lon="2.43476">
        <ele>702</ele>
        <time>2022-07-05T10:04:35Z</time>
      </trkpt>
      <trkpt lat="42.58247" lon="2.43497">
        <ele>694</ele>
        <time>2022-07-05T10:05:36Z</time>
      </trkpt>
      <trkpt lat="42.58229" lon="2.43512">
        <ele>688</ele>
        <time>2022-07-05T10:06:04Z</time>
      </trkpt>
      <trkpt lat="42.58213" lon="2.43527">
        <ele>681</ele>
        <time>2022-07-05T10:06:30Z</time>
      </trkpt>
      <trkpt lat="42.58192" lon="2.43539">
        <ele>675</ele>
        <time>2022-07-05T10:07:00Z</time>
      </trkpt>
      <trkpt lat="42.58171" lon="2.43544">
        <ele>670</ele>
        <time>2022-07-05T10:07:28Z</time>
      </trkpt>
      <trkpt lat="42.58158" lon="2.43578">
        <ele>664</ele>
        <time>2022-07-05T10:08:06Z</time>
      </trkpt>
      <trkpt lat="42.58139" lon="2.43601">
        <ele>659</ele>
        <time>2022-07-05T10:08:40Z</time>
      </trkpt>
      <trkpt lat="42.58116" lon="2.4362">
        <ele>655</ele>
        <time>2022-07-05T10:09:16Z</time>
      </trkpt>
      <trkpt lat="42.58123" lon="2.43591">
        <ele>658</ele>
        <time>2022-07-05T10:09:46Z</time>
      </trkpt>
      <trkpt lat="42.58126" lon="2.43563">
        <ele>660</ele>
        <time>2022-07-05T10:10:14Z</time>
      </trkpt>
      <trkpt lat="42.58123" lon="2.43535">
        <ele>660</ele>
        <time>2022-07-05T10:10:42Z</time>
      </trkpt>
      <trkpt lat="42.58122" lon="2.4349">
        <ele>660</ele>
        <time>2022-07-05T10:11:26Z</time>
      </trkpt>
      <trkpt lat="42.58129" lon="2.43458">
        <ele>660</ele>
        <time>2022-07-05T10:11:59Z</time>
      </trkpt>
      <trkpt lat="42.58134" lon="2.43429">
        <ele>660</ele>
        <time>2022-07-05T10:12:28Z</time>
      </trkpt>
      <trkpt lat="42.58141" lon="2.43401">
        <ele>660</ele>
        <time>2022-07-05T10:12:57Z</time>
      </trkpt>
      <trkpt lat="42.58156" lon="2.43363">
        <ele>660</ele>
        <time>2022-07-05T10:13:39Z</time>
      </trkpt>
      <trkpt lat="42.5817" lon="2.43332">
        <ele>661</ele>
        <time>2022-07-05T10:14:15Z</time>
      </trkpt>
      <trkpt lat="42.58183" lon="2.433">
        <ele>662</ele>
        <time>2022-07-05T10:14:51Z</time>
      </trkpt>
      <trkpt lat="42.58195" lon="2.43276">
        <ele>663</ele>
        <time>2022-07-05T10:15:19Z</time>
      </trkpt>
      <trkpt lat="42.58204" lon="2.4325">
        <ele>663</ele>
        <time>2022-07-05T10:15:48Z</time>
      </trkpt>
      <trkpt lat="42.58215" lon="2.43221">
        <ele>661</ele>
        <time>2022-07-05T10:16:20Z</time>
      </trkpt>
      <trkpt lat="42.58232" lon="2.43205">
        <ele>661</ele>
        <time>2022-07-05T10:16:47Z</time>
      </trkpt>
      <trkpt lat="42.58254" lon="2.43197">
        <ele>663</ele>
        <time>2022-07-05T10:17:18Z</time>
      </trkpt>
      <trkpt lat="42.58276" lon="2.43206">
        <ele>665</ele>
        <time>2022-07-05T10:17:48Z</time>
      </trkpt>
      <trkpt lat="42.58305" lon="2.43202">
        <ele>664</ele>
        <time>2022-07-05T10:18:27Z</time>
      </trkpt>
      <trkpt lat="42.58331" lon="2.43205">
        <ele>665</ele>
        <time>2022-07-05T10:19:02Z</time>
      </trkpt>
      <trkpt lat="42.58354" lon="2.43203">
        <ele>665</ele>
        <time>2022-07-05T10:19:33Z</time>
      </trkpt>
      <trkpt lat="42.58363" lon="2.43176">
        <ele>660</ele>
        <time>2022-07-05T10:20:02Z</time>
      </trkpt>
      <trkpt lat="42.58364" lon="2.43144">
        <ele>654</ele>
        <time>2022-07-05T10:20:33Z</time>
      </trkpt>
      <trkpt lat="42.58366" lon="2.43116">
        <ele>649</ele>
        <time>2022-07-05T10:21:01Z</time>
      </trkpt>
      <trkpt lat="42.58383" lon="2.43073">
        <ele>644</ele>
        <time>2022-07-05T10:21:49Z</time>
      </trkpt>
      <trkpt lat="42.58419" lon="2.43057">
        <ele>647</ele>
        <time>2022-07-05T10:22:40Z</time>
      </trkpt>
      <trkpt lat="42.58456" lon="2.43063">
        <ele>648</ele>
        <time>2022-07-05T10:23:29Z</time>
      </trkpt>
      <trkpt lat="42.58488" lon="2.43057">
        <ele>647</ele>
        <time>2022-07-05T10:24:12Z</time>
      </trkpt>
      <trkpt lat="42.58464" lon="2.43036">
        <ele>644</ele>
        <time>2022-07-05T10:24:51Z</time>
      </trkpt>
      <trkpt lat="42.58443" lon="2.43022">
        <ele>643</ele>
        <time>2022-07-05T10:25:22Z</time>
      </trkpt>
      <trkpt lat="42.5842" lon="2.42994">
        <ele>639</ele>
        <time>2022-07-05T10:26:03Z</time>
      </trkpt>
      <trkpt lat="42.58404" lon="2.42953">
        <ele>627</ele>
        <time>2022-07-05T10:26:49Z</time>
      </trkpt>
      <trkpt lat="42.58416" lon="2.42936">
        <ele>626</ele>
        <time>2022-07-05T10:27:12Z</time>
      </trkpt>
      <trkpt lat="42.58438" lon="2.42926">
        <ele>624</ele>
        <time>2022-07-05T10:27:43Z</time>
      </trkpt>
      <trkpt lat="42.58475" lon="2.42938">
        <ele>627</ele>
        <time>2022-07-05T10:28:33Z</time>
      </trkpt>
      <trkpt lat="42.58461" lon="2.42919">
        <ele>624</ele>
        <time>2022-07-05T10:29:00Z</time>
      </trkpt>
      <trkpt lat="42.58405" lon="2.42904">
        <ele>616</ele>
        <time>2022-07-05T10:30:16Z</time>
      </trkpt>
      <trkpt lat="42.58419" lon="2.42893">
        <ele>617</ele>
        <time>2022-07-05T10:30:38Z</time>
      </trkpt>
      <trkpt lat="42.58452" lon="2.42878">
        <ele>614</ele>
        <time>2022-07-05T10:31:24Z</time>
      </trkpt>
      <trkpt lat="42.58469" lon="2.42861">
        <ele>611</ele>
        <time>2022-07-05T10:31:52Z</time>
      </trkpt>
      <trkpt lat="42.58495" lon="2.42865">
        <ele>613</ele>
        <time>2022-07-05T10:32:27Z</time>
      </trkpt>
      <trkpt lat="42.58513" lon="2.42885">
        <ele>617</ele>
        <time>2022-07-05T10:32:58Z</time>
      </trkpt>
      <trkpt lat="42.58529" lon="2.42867">
        <ele>614</ele>
        <time>2022-07-05T10:33:26Z</time>
      </trkpt>
      <trkpt lat="42.58552" lon="2.42827">
        <ele>607</ele>
        <time>2022-07-05T10:34:16Z</time>
      </trkpt>
      <trkpt lat="42.58593" lon="2.42793">
        <ele>602</ele>
        <time>2022-07-05T10:35:20Z</time>
      </trkpt>
      <trkpt lat="42.58628" lon="2.42744">
        <ele>596</ele>
        <time>2022-07-05T10:36:27Z</time>
      </trkpt>
      <trkpt lat="42.58656" lon="2.42726">
        <ele>594</ele>
        <time>2022-07-05T10:37:08Z</time>
      </trkpt>
      <trkpt lat="42.58705" lon="2.42669">
        <ele>589</ele>
        <time>2022-07-05T10:38:34Z</time>
      </trkpt>
      <trkpt lat="42.58738" lon="2.4264">
        <ele>588</ele>
        <time>2022-07-05T10:39:27Z</time>
      </trkpt>
      <trkpt lat="42.58764" lon="2.426">
        <ele>583</ele>
        <time>2022-07-05T10:40:19Z</time>
      </trkpt>
      <trkpt lat="42.58784" lon="2.42573">
        <ele>579</ele>
        <time>2022-07-05T10:40:57Z</time>
      </trkpt>
      <trkpt lat="42.58804" lon="2.42557">
        <ele>577</ele>
        <time>2022-07-05T10:41:28Z</time>
      </trkpt>
      <trkpt lat="42.58804" lon="2.42538">
        <ele>571</ele>
        <time>2022-07-05T10:41:47Z</time>
      </trkpt>
      <trkpt lat="42.58785" lon="2.42553">
        <ele>574</ele>
        <time>2022-07-05T10:42:16Z</time>
      </trkpt>
      <trkpt lat="42.58767" lon="2.42562">
        <ele>574</ele>
        <time>2022-07-05T10:42:41Z</time>
      </trkpt>
      <trkpt lat="42.58705" lon="2.42569">
        <ele>568</ele>
        <time>2022-07-05T10:44:04Z</time>
      </trkpt>
      <trkpt lat="42.58659" lon="2.4258">
        <ele>565</ele>
        <time>2022-07-05T10:45:07Z</time>
      </trkpt>
      <trkpt lat="42.58626" lon="2.42597">
        <ele>566</ele>
        <time>2022-07-05T10:45:54Z</time>
      </trkpt>
      <trkpt lat="42.58636" lon="2.42558">
        <ele>558</ele>
        <time>2022-07-05T10:46:34Z</time>
      </trkpt>
      <trkpt lat="42.5864" lon="2.42511">
        <ele>548</ele>
        <time>2022-07-05T10:47:21Z</time>
      </trkpt>
      <trkpt lat="42.58618" lon="2.42533">
        <ele>550</ele>
        <time>2022-07-05T10:47:57Z</time>
      </trkpt>
      <trkpt lat="42.58578" lon="2.42509">
        <ele>540</ele>
        <time>2022-07-05T10:48:56Z</time>
      </trkpt>
      <trkpt lat="42.58528" lon="2.42548">
        <ele>537</ele>
        <time>2022-07-05T10:50:13Z</time>
      </trkpt>
      <trkpt lat="42.58492" lon="2.42584">
        <ele>538</ele>
        <time>2022-07-05T10:51:12Z</time>
      </trkpt>
      <trkpt lat="42.58463" lon="2.42579">
        <ele>533</ele>
        <time>2022-07-05T10:51:51Z</time>
      </trkpt>
      <trkpt lat="42.58413" lon="2.42615">
        <ele>536</ele>
        <time>2022-07-05T10:53:07Z</time>
      </trkpt>
      <trkpt lat="42.5839" lon="2.42618">
        <ele>533</ele>
        <time>2022-07-05T10:53:38Z</time>
      </trkpt>
      <trkpt lat="42.58349" lon="2.42646">
        <ele>530</ele>
        <time>2022-07-05T10:54:39Z</time>
      </trkpt>
      <trkpt lat="42.58332" lon="2.42666">
        <ele>529</ele>
        <time>2022-07-05T10:55:09Z</time>
      </trkpt>
      <trkpt lat="42.58316" lon="2.4269">
        <ele>534</ele>
        <time>2022-07-05T10:55:41Z</time>
      </trkpt>
      <trkpt lat="42.583" lon="2.42712">
        <ele>536</ele>
        <time>2022-07-05T10:56:11Z</time>
      </trkpt>
      <trkpt lat="42.58276" lon="2.42728">
        <ele>533</ele>
        <time>2022-07-05T10:56:47Z</time>
      </trkpt>
      <trkpt lat="42.58253" lon="2.4274">
        <ele>528</ele>
        <time>2022-07-05T10:57:20Z</time>
      </trkpt>
      <trkpt lat="42.58236" lon="2.42755">
        <ele>529</ele>
        <time>2022-07-05T10:57:47Z</time>
      </trkpt>
      <trkpt lat="42.58218" lon="2.42781">
        <ele>534</ele>
        <time>2022-07-05T10:58:22Z</time>
      </trkpt>
      <trkpt lat="42.58182" lon="2.42767">
        <ele>529</ele>
        <time>2022-07-05T10:59:12Z</time>
      </trkpt>
      <trkpt lat="42.58169" lon="2.42745">
        <ele>527</ele>
        <time>2022-07-05T10:59:40Z</time>
      </trkpt>
      <trkpt lat="42.58175" lon="2.4272">
        <ele>530</ele>
        <time>2022-07-05T11:00:05Z</time>
      </trkpt>
      <trkpt lat="42.58207" lon="2.42698">
        <ele>529</ele>
        <time>2022-07-05T11:00:53Z</time>
      </trkpt>
      <trkpt lat="42.58197" lon="2.4267">
        <ele>531</ele>
        <time>2022-07-05T11:01:24Z</time>
      </trkpt>
      <trkpt lat="42.58189" lon="2.42641">
        <ele>533</ele>
        <time>2022-07-05T11:01:54Z</time>
      </trkpt>
      <trkpt lat="42.58158" lon="2.42636">
        <ele>538</ele>
        <time>2022-07-05T11:02:36Z</time>
      </trkpt>
      <trkpt lat="42.58133" lon="2.42649">
        <ele>541</ele>
        <time>2022-07-05T11:03:12Z</time>
      </trkpt>
      <trkpt lat="42.58104" lon="2.42672">
        <ele>545</ele>
        <time>2022-07-05T11:03:56Z</time>
      </trkpt>
      <trkpt lat="42.58085" lon="2.42698">
        <ele>547</ele>
        <time>2022-07-05T11:04:32Z</time>
      </trkpt>
      <trkpt lat="42.58066" lon="2.42736">
        <ele>548</ele>
        <time>2022-07-05T11:05:18Z</time>
      </trkpt>
      <trkpt lat="42.58042" lon="2.42774">
        <ele>549</ele>
        <time>2022-07-05T11:06:07Z</time>
      </trkpt>
      <trkpt lat="42.58005" lon="2.42796">
        <ele>552</ele>
        <time>2022-07-05T11:07:01Z</time>
      </trkpt>
      <trkpt lat="42.5797" lon="2.42836">
        <ele>555</ele>
        <time>2022-07-05T11:08:02Z</time>
      </trkpt>
      <trkpt lat="42.5794" lon="2.42846">
        <ele>559</ele>
        <time>2022-07-05T11:08:43Z</time>
      </trkpt>
      <trkpt lat="42.57929" lon="2.42854">
        <ele>561</ele>
        <time>2022-07-05T11:09:00Z</time>
      </trkpt>
      <trkpt lat="42.57911" lon="2.42864">
        <ele>562</ele>
        <time>2022-07-05T11:09:26Z</time>
      </trkpt>
      <trkpt lat="42.57884" lon="2.4287">
        <ele>562</ele>
        <time>2022-07-05T11:10:02Z</time>
      </trkpt>
      <trkpt lat="42.57865" lon="2.4286">
        <ele>564</ele>
        <time>2022-07-05T11:10:29Z</time>
      </trkpt>
      <trkpt lat="42.57879" lon="2.42839">
        <ele>566</ele>
        <time>2022-07-05T11:10:57Z</time>
      </trkpt>
      <trkpt lat="42.57925" lon="2.42731">
        <ele>562</ele>
        <time>2022-07-05T11:13:00Z</time>
      </trkpt>
      <trkpt lat="42.57922" lon="2.42696">
        <ele>561</ele>
        <time>2022-07-05T11:13:34Z</time>
      </trkpt>
      <trkpt lat="42.57927" lon="2.42688">
        <ele>560</ele>
        <time>2022-07-05T11:13:45Z</time>
      </trkpt>
    </trkseg>
  </trk>
</gpx>